Aeroporto :
LOGIN :

Iscrizione | Disclaimer

   EN    FR    IT 

 










Sommario :    VFR   VFR Marginale   IFR   IFR Intensivo   IFR Molto Intensivo
Visibilità : 
Base nubi : 
>= 8 km
>= 3000ft
5 / 8 km
1000 / 3000 ft
1500m / 5 km
500 / 1000 ft
800 / 1500m
200 / 500 ft
< 800m
< 200 ft
Simboli :   Temporali  Nebbia  Neve Forte  Precipitazioni Forti  Vento > 20 kt
SIGMETs :   Varie  Temporali  Ghiacco  Turbolenza  Onda orograficha  Ceneri Vulcaniche






- Altitudine del aeroporto : 11 ft
- Codice IATA : PVK


LGPZ - Aktion Lefkada Preveza

ULTIMO METAR :
  • 220720Z 06005KT 9999 FEW018 14/13 Q1016

METARs OBSOLETI :
  • 220650Z VRB03KT 9999 FEW018 13/13 Q1016
  • 220620Z 00000KT 9999 FEW018 13/12 Q1015
  • 220550Z 00000KT 9999 FEW018 12/11 Q1015
  • 220520Z 05005KT 9999 FEW018 12/11 Q1015
  • 220450Z 05004KT 9999 FEW020 12/12 Q1015 RMK FEW200 BLU

TAF TAF LGPZ
Valido dal 22 a 06 ore il 23 a 06 ore UTC


220500Z 2206/2306 VRB05KT 9999 FEW020



MetMap, La meteo Aeronautica in un colpo d'occhio ! - Copyright ORBIFLY Dicembre 2007 - Disclaimer

ORBIFLY MET'MAP TEAM :

Programmazione e sviluppo : Alexandra Zaïnal
Concezione e sviluppo : Baudouin d'Aumeries
Co-Programmazione e sviluppo : Marc-Olivier Méhu
Supporto tecnico e logistico : Manuel Goepfert
Aiuto per la traduzione : Arnaldo La Scala

Contatto : metmap@orbifly.com




FONTI E CREDITI :

   NOAA